sensor_id;sensor_type;location;lat;lon;timestamp;temperature;humidity
19025;DHT22;9645;51.448;6.260;2022-10-16T00:01:05;13.10;99.90
19025;DHT22;9645;51.448;6.260;2022-10-16T00:03:33;13.10;99.90
19025;DHT22;9645;51.448;6.260;2022-10-16T00:06:00;13.10;99.90
19025;DHT22;9645;51.448;6.260;2022-10-16T00:08:28;13.10;99.90
19025;DHT22;9645;51.448;6.260;2022-10-16T00:10:59;13.00;99.90
19025;DHT22;9645;51.448;6.260;2022-10-16T00:13:28;13.00;99.90
19025;DHT22;9645;51.448;6.260;2022-10-16T00:15:55;12.90;99.90
19025;DHT22;9645;51.448;6.260;2022-10-16T00:18:22;13.00;99.90
19025;DHT22;9645;51.448;6.260;2022-10-16T00:20:49;12.90;99.90
19025;DHT22;9645;51.448;6.260;2022-10-16T00:23:17;12.90;99.90
19025;DHT22;9645;51.448;6.260;2022-10-16T00:25:44;12.90;99.90
19025;DHT22;9645;51.448;6.260;2022-10-16T00:28:11;13.00;99.90
19025;DHT22;9645;51.448;6.260;2022-10-16T00:30:39;13.00;99.90
19025;DHT22;9645;51.448;6.260;2022-10-16T00:33:06;13.10;99.90
19025;DHT22;9645;51.448;6.260;2022-10-16T00:35:33;13.10;99.90
19025;DHT22;9645;51.448;6.260;2022-10-16T00:38:00;13.10;99.90
19025;DHT22;9645;51.448;6.260;2022-10-16T00:40:27;13.10;99.90
19025;DHT22;9645;51.448;6.260;2022-10-16T00:42:55;13.00;99.90
19025;DHT22;9645;51.448;6.260;2022-10-16T00:45:22;11.90;99.90
19025;DHT22;9645;51.448;6.260;2022-10-16T00:47:51;13.00;99.90
19025;DHT22;9645;51.448;6.260;2022-10-16T00:50:23;13.10;99.90
19025;DHT22;9645;51.448;6.260;2022-10-16T00:52:51;13.00;99.90
19025;DHT22;9645;51.448;6.260;2022-10-16T00:55:19;13.00;99.90
19025;DHT22;9645;51.448;6.260;2022-10-16T00:57:46;13.00;99.90
19025;DHT22;9645;51.448;6.260;2022-10-16T01:00:18;13.00;99.90
19025;DHT22;9645;51.448;6.260;2022-10-16T01:02:53;13.00;99.90
19025;DHT22;9645;51.448;6.260;2022-10-16T01:05:21;13.00;99.90
19025;DHT22;9645;51.448;6.260;2022-10-16T01:07:53;13.10;99.90
19025;DHT22;9645;51.448;6.260;2022-10-16T01:10:28;13.10;99.90
19025;DHT22;9645;51.448;6.260;2022-10-16T01:13:00;13.10;99.90
19025;DHT22;9645;51.448;6.260;2022-10-16T01:15:32;13.10;99.90
19025;DHT22;9645;51.448;6.260;2022-10-16T01:18:05;13.20;99.90
19025;DHT22;9645;51.448;6.260;2022-10-16T01:20:35;13.20;99.90
19025;DHT22;9645;51.448;6.260;2022-10-16T01:23:12;13.20;99.90
19025;DHT22;9645;51.448;6.260;2022-10-16T01:25:59;13.10;99.90
19025;DHT22;9645;51.448;6.260;2022-10-16T01:28:34;13.10;99.90
19025;DHT22;9645;51.448;6.260;2022-10-16T01:31:03;13.10;99.90
19025;DHT22;9645;51.448;6.260;2022-10-16T01:33:36;13.00;99.90
19025;DHT22;9645;51.448;6.260;2022-10-16T01:36:10;13.00;99.90
19025;DHT22;9645;51.448;6.260;2022-10-16T01:38:39;12.90;99.90
19025;DHT22;9645;51.448;6.260;2022-10-16T01:41:10;12.90;99.90
19025;DHT22;9645;51.448;6.260;2022-10-16T01:43:43;12.80;99.90
19025;DHT22;9645;51.448;6.260;2022-10-16T01:46:13;12.80;99.90
19025;DHT22;9645;51.448;6.260;2022-10-16T01:48:41;12.80;99.90
19025;DHT22;9645;51.448;6.260;2022-10-16T01:51:10;12.80;99.90
19025;DHT22;9645;51.448;6.260;2022-10-16T01:53:39;12.80;99.90
19025;DHT22;9645;51.448;6.260;2022-10-16T01:56:09;12.80;99.90
19025;DHT22;9645;51.448;6.260;2022-10-16T01:58:42;12.80;99.90
19025;DHT22;9645;51.448;6.260;2022-10-16T02:01:11;12.80;99.90
19025;DHT22;9645;51.448;6.260;2022-10-16T02:03:41;12.90;99.90
19025;DHT22;9645;51.448;6.260;2022-10-16T02:06:09;12.90;99.90
19025;DHT22;9645;51.448;6.260;2022-10-16T02:08:36;13.00;99.90
19025;DHT22;9645;51.448;6.260;2022-10-16T02:11:04;13.00;99.90
19025;DHT22;9645;51.448;6.260;2022-10-16T02:13:35;13.00;99.90
19025;DHT22;9645;51.448;6.260;2022-10-16T02:16:06;13.00;99.90
19025;DHT22;9645;51.448;6.260;2022-10-16T02:18:34;13.00;99.90
19025;DHT22;9645;51.448;6.260;2022-10-16T02:21:10;13.00;99.90
19025;DHT22;9645;51.448;6.260;2022-10-16T02:23:43;13.00;99.90
19025;DHT22;9645;51.448;6.260;2022-10-16T02:26:15;13.00;99.90
19025;DHT22;9645;51.448;6.260;2022-10-16T02:28:46;13.00;99.90
19025;DHT22;9645;51.448;6.260;2022-10-16T02:31:20;13.00;99.90
19025;DHT22;9645;51.448;6.260;2022-10-16T02:33:50;13.00;99.90
19025;DHT22;9645;51.448;6.260;2022-10-16T02:36:18;13.00;99.90
19025;DHT22;9645;51.448;6.260;2022-10-16T02:38:45;13.00;99.90
19025;DHT22;9645;51.448;6.260;2022-10-16T02:41:12;12.90;99.90
19025;DHT22;9645;51.448;6.260;2022-10-16T02:43:40;12.90;99.90
19025;DHT22;9645;51.448;6.260;2022-10-16T02:46:07;12.90;99.90
19025;DHT22;9645;51.448;6.260;2022-10-16T02:48:35;12.90;99.90
19025;DHT22;9645;51.448;6.260;2022-10-16T02:51:03;12.90;99.90
19025;DHT22;9645;51.448;6.260;2022-10-16T02:53:30;12.90;99.90
19025;DHT22;9645;51.448;6.260;2022-10-16T02:55:56;12.90;99.90
19025;DHT22;9645;51.448;6.260;2022-10-16T02:58:23;12.90;99.90
19025;DHT22;9645;51.448;6.260;2022-10-16T03:00:50;12.90;99.90
19025;DHT22;9645;51.448;6.260;2022-10-16T03:03:17;12.90;99.90
19025;DHT22;9645;51.448;6.260;2022-10-16T03:05:46;12.90;99.90
19025;DHT22;9645;51.448;6.260;2022-10-16T03:08:13;12.90;99.90
19025;DHT22;9645;51.448;6.260;2022-10-16T03:10:40;12.90;99.90
19025;DHT22;9645;51.448;6.260;2022-10-16T03:13:07;12.90;99.90
19025;DHT22;9645;51.448;6.260;2022-10-16T03:15:34;12.90;99.90
19025;DHT22;9645;51.448;6.260;2022-10-16T03:18:01;12.90;99.90
19025;DHT22;9645;51.448;6.260;2022-10-16T03:20:28;12.90;99.90
19025;DHT22;9645;51.448;6.260;2022-10-16T03:22:56;13.00;99.90
19025;DHT22;9645;51.448;6.260;2022-10-16T03:25:23;13.00;99.90
19025;DHT22;9645;51.448;6.260;2022-10-16T03:27:50;12.90;99.90
19025;DHT22;9645;51.448;6.260;2022-10-16T03:30:17;12.90;99.90
19025;DHT22;9645;51.448;6.260;2022-10-16T03:32:44;12.90;99.90
19025;DHT22;9645;51.448;6.260;2022-10-16T03:35:11;12.90;99.90
19025;DHT22;9645;51.448;6.260;2022-10-16T03:37:38;12.90;99.90
19025;DHT22;9645;51.448;6.260;2022-10-16T03:40:08;12.90;99.90
19025;DHT22;9645;51.448;6.260;2022-10-16T03:42:35;12.90;99.90
19025;DHT22;9645;51.448;6.260;2022-10-16T03:45:02;12.80;99.90
19025;DHT22;9645;51.448;6.260;2022-10-16T03:47:29;12.80;99.90
19025;DHT22;9645;51.448;6.260;2022-10-16T03:49:58;12.80;99.90
19025;DHT22;9645;51.448;6.260;2022-10-16T03:52:25;12.80;99.90
19025;DHT22;9645;51.448;6.260;2022-10-16T03:54:52;12.80;99.90
19025;DHT22;9645;51.448;6.260;2022-10-16T03:57:21;12.80;99.90
19025;DHT22;9645;51.448;6.260;2022-10-16T03:59:47;12.70;99.90
19025;DHT22;9645;51.448;6.260;2022-10-16T04:02:15;12.80;99.90
19025;DHT22;9645;51.448;6.260;2022-10-16T04:04:42;12.80;99.90
19025;DHT22;9645;51.448;6.260;2022-10-16T04:07:08;12.80;99.90
19025;DHT22;9645;51.448;6.260;2022-10-16T04:09:35;12.80;99.90
19025;DHT22;9645;51.448;6.260;2022-10-16T04:12:02;12.70;99.90
19025;DHT22;9645;51.448;6.260;2022-10-16T04:14:31;12.70;99.90
19025;DHT22;9645;51.448;6.260;2022-10-16T04:16:58;12.80;99.90
19025;DHT22;9645;51.448;6.260;2022-10-16T04:19:24;12.70;99.90
19025;DHT22;9645;51.448;6.260;2022-10-16T04:21:52;12.80;99.90
19025;DHT22;9645;51.448;6.260;2022-10-16T04:24:18;12.80;99.90
19025;DHT22;9645;51.448;6.260;2022-10-16T04:26:45;12.70;99.90
19025;DHT22;9645;51.448;6.260;2022-10-16T04:29:12;12.70;99.90
19025;DHT22;9645;51.448;6.260;2022-10-16T04:31:41;12.70;99.90
19025;DHT22;9645;51.448;6.260;2022-10-16T04:34:08;12.70;99.90
19025;DHT22;9645;51.448;6.260;2022-10-16T04:36:34;12.70;99.90
19025;DHT22;9645;51.448;6.260;2022-10-16T04:39:01;12.70;99.90
19025;DHT22;9645;51.448;6.260;2022-10-16T04:41:28;12.70;99.90
19025;DHT22;9645;51.448;6.260;2022-10-16T04:43:55;12.60;99.90
19025;DHT22;9645;51.448;6.260;2022-10-16T04:46:22;12.60;99.90
19025;DHT22;9645;51.448;6.260;2022-10-16T04:48:51;12.60;99.90
19025;DHT22;9645;51.448;6.260;2022-10-16T04:51:18;12.60;99.90
19025;DHT22;9645;51.448;6.260;2022-10-16T04:53:45;12.70;99.90
19025;DHT22;9645;51.448;6.260;2022-10-16T04:56:12;12.70;99.90
19025;DHT22;9645;51.448;6.260;2022-10-16T04:58:40;12.70;99.90
19025;DHT22;9645;51.448;6.260;2022-10-16T05:01:07;12.70;99.90
19025;DHT22;9645;51.448;6.260;2022-10-16T05:03:34;12.70;99.90
19025;DHT22;9645;51.448;6.260;2022-10-16T05:06:05;13.10;99.90
19025;DHT22;9645;51.448;6.260;2022-10-16T05:08:32;12.70;99.90
19025;DHT22;9645;51.448;6.260;2022-10-16T05:10:59;12.70;99.90
19025;DHT22;9645;51.448;6.260;2022-10-16T05:13:27;12.70;99.90
19025;DHT22;9645;51.448;6.260;2022-10-16T05:15:54;12.70;99.90
19025;DHT22;9645;51.448;6.260;2022-10-16T05:18:21;12.70;99.90
19025;DHT22;9645;51.448;6.260;2022-10-16T05:20:47;12.70;99.90
19025;DHT22;9645;51.448;6.260;2022-10-16T05:23:16;12.70;99.90
19025;DHT22;9645;51.448;6.260;2022-10-16T05:25:43;12.70;99.90
19025;DHT22;9645;51.448;6.260;2022-10-16T05:28:10;12.70;99.90
19025;DHT22;9645;51.448;6.260;2022-10-16T05:30:37;12.70;99.90
19025;DHT22;9645;51.448;6.260;2022-10-16T05:33:04;12.70;99.90
19025;DHT22;9645;51.448;6.260;2022-10-16T05:35:31;12.70;99.90
19025;DHT22;9645;51.448;6.260;2022-10-16T05:37:58;12.70;99.90
19025;DHT22;9645;51.448;6.260;2022-10-16T05:40:26;12.70;99.90
19025;DHT22;9645;51.448;6.260;2022-10-16T05:42:55;12.70;99.90
19025;DHT22;9645;51.448;6.260;2022-10-16T05:45:22;12.70;99.90
19025;DHT22;9645;51.448;6.260;2022-10-16T05:47:49;12.70;99.90
19025;DHT22;9645;51.448;6.260;2022-10-16T05:50:16;12.60;99.90
19025;DHT22;9645;51.448;6.260;2022-10-16T05:52:43;12.60;99.90
19025;DHT22;9645;51.448;6.260;2022-10-16T05:55:10;12.60;99.90
19025;DHT22;9645;51.448;6.260;2022-10-16T05:57:39;12.60;99.90
19025;DHT22;9645;51.448;6.260;2022-10-16T06:00:06;12.50;99.90
19025;DHT22;9645;51.448;6.260;2022-10-16T06:02:34;12.50;99.90
19025;DHT22;9645;51.448;6.260;2022-10-16T06:05:01;12.50;99.90
19025;DHT22;9645;51.448;6.260;2022-10-16T06:07:28;12.60;99.90
19025;DHT22;9645;51.448;6.260;2022-10-16T06:09:54;12.50;99.90
19025;DHT22;9645;51.448;6.260;2022-10-16T06:12:21;12.50;99.90
19025;DHT22;9645;51.448;6.260;2022-10-16T06:14:50;12.60;99.90
19025;DHT22;9645;51.448;6.260;2022-10-16T06:17:17;12.60;99.90
19025;DHT22;9645;51.448;6.260;2022-10-16T06:19:44;12.60;99.90
19025;DHT22;9645;51.448;6.260;2022-10-16T06:22:11;12.60;99.90
19025;DHT22;9645;51.448;6.260;2022-10-16T06:24:38;12.60;99.90
19025;DHT22;9645;51.448;6.260;2022-10-16T06:27:05;12.70;99.90
19025;DHT22;9645;51.448;6.260;2022-10-16T06:29:32;12.80;99.90
19025;DHT22;9645;51.448;6.260;2022-10-16T06:32:00;12.80;99.90
19025;DHT22;9645;51.448;6.260;2022-10-16T06:34:27;12.90;99.90
19025;DHT22;9645;51.448;6.260;2022-10-16T06:36:54;12.90;99.90
19025;DHT22;9645;51.448;6.260;2022-10-16T06:39:21;12.90;99.90
19025;DHT22;9645;51.448;6.260;2022-10-16T06:41:48;13.00;99.90
19025;DHT22;9645;51.448;6.260;2022-10-16T06:44:15;13.00;99.90
19025;DHT22;9645;51.448;6.260;2022-10-16T06:46:42;12.90;99.90
19025;DHT22;9645;51.448;6.260;2022-10-16T06:49:10;12.90;99.90
19025;DHT22;9645;51.448;6.260;2022-10-16T06:51:37;12.90;99.90
19025;DHT22;9645;51.448;6.260;2022-10-16T06:54:06;12.90;99.90
19025;DHT22;9645;51.448;6.260;2022-10-16T06:56:34;12.90;99.90
19025;DHT22;9645;51.448;6.260;2022-10-16T06:59:01;13.00;99.90
19025;DHT22;9645;51.448;6.260;2022-10-16T07:01:29;13.00;99.90
19025;DHT22;9645;51.448;6.260;2022-10-16T07:03:56;12.90;99.90
19025;DHT22;9645;51.448;6.260;2022-10-16T07:06:25;12.90;99.90
19025;DHT22;9645;51.448;6.260;2022-10-16T07:08:53;13.00;99.90
19025;DHT22;9645;51.448;6.260;2022-10-16T07:11:21;13.10;99.90
19025;DHT22;9645;51.448;6.260;2022-10-16T07:13:50;13.10;99.90
19025;DHT22;9645;51.448;6.260;2022-10-16T07:16:18;13.30;99.90
19025;DHT22;9645;51.448;6.260;2022-10-16T07:18:46;13.70;99.90
19025;DHT22;9645;51.448;6.260;2022-10-16T07:21:16;14.00;99.90
19025;DHT22;9645;51.448;6.260;2022-10-16T07:23:45;14.10;99.90
19025;DHT22;9645;51.448;6.260;2022-10-16T07:26:12;15.00;99.90
19025;DHT22;9645;51.448;6.260;2022-10-16T07:28:39;15.80;99.90
19025;DHT22;9645;51.448;6.260;2022-10-16T07:31:07;15.80;99.90
19025;DHT22;9645;51.448;6.260;2022-10-16T07:33:37;16.30;99.90
19025;DHT22;9645;51.448;6.260;2022-10-16T07:36:05;17.40;99.90
19025;DHT22;9645;51.448;6.260;2022-10-16T07:38:32;18.00;99.90
19025;DHT22;9645;51.448;6.260;2022-10-16T07:41:03;18.50;99.90
19025;DHT22;9645;51.448;6.260;2022-10-16T07:43:30;19.10;99.90
19025;DHT22;9645;51.448;6.260;2022-10-16T07:45:57;19.50;99.90
19025;DHT22;9645;51.448;6.260;2022-10-16T07:48:28;20.10;99.90
19025;DHT22;9645;51.448;6.260;2022-10-16T07:50:57;21.50;99.90
19025;DHT22;9645;51.448;6.260;2022-10-16T07:53:25;22.70;99.90
19025;DHT22;9645;51.448;6.260;2022-10-16T07:55:52;24.30;99.90
19025;DHT22;9645;51.448;6.260;2022-10-16T07:58:20;25.10;99.90
19025;DHT22;9645;51.448;6.260;2022-10-16T08:00:47;25.80;99.90
19025;DHT22;9645;51.448;6.260;2022-10-16T08:03:14;25.30;99.90
19025;DHT22;9645;51.448;6.260;2022-10-16T08:05:41;25.40;99.90
19025;DHT22;9645;51.448;6.260;2022-10-16T08:08:12;25.90;99.90
19025;DHT22;9645;51.448;6.260;2022-10-16T08:10:39;26.10;99.90
19025;DHT22;9645;51.448;6.260;2022-10-16T08:13:25;25.90;99.90
19025;DHT22;9645;51.448;6.260;2022-10-16T08:16:09;26.60;99.90
19025;DHT22;9645;51.448;6.260;2022-10-16T08:18:37;27.30;97.90
19025;DHT22;9645;51.448;6.260;2022-10-16T08:21:05;27.70;95.90
19025;DHT22;9645;51.448;6.260;2022-10-16T08:23:34;28.00;94.20
19025;DHT22;9645;51.448;6.260;2022-10-16T08:26:05;28.40;95.10
19025;DHT22;9645;51.448;6.260;2022-10-16T08:28:34;29.20;93.80
19025;DHT22;9645;51.448;6.260;2022-10-16T08:31:08;29.20;88.30
19025;DHT22;9645;51.448;6.260;2022-10-16T08:33:36;29.60;86.50
19025;DHT22;9645;51.448;6.260;2022-10-16T08:51:24;31.10;72.90
19025;DHT22;9645;51.448;6.260;2022-10-16T08:53:54;31.50;70.90
19025;DHT22;9645;51.448;6.260;2022-10-16T08:56:22;30.90;67.60
19025;DHT22;9645;51.448;6.260;2022-10-16T08:58:51;30.80;73.40
19025;DHT22;9645;51.448;6.260;2022-10-16T09:01:21;30.70;68.30
19025;DHT22;9645;51.448;6.260;2022-10-16T09:04:20;30.80;69.60
19025;DHT22;9645;51.448;6.260;2022-10-16T09:06:57;29.60;72.90
19025;DHT22;9645;51.448;6.260;2022-10-16T09:09:41;29.80;74.10
19025;DHT22;9645;51.448;6.260;2022-10-16T09:12:15;30.80;70.10
19025;DHT22;9645;51.448;6.260;2022-10-16T09:15:01;30.10;70.90
19025;DHT22;9645;51.448;6.260;2022-10-16T09:17:39;30.00;73.30
19025;DHT22;9645;51.448;6.260;2022-10-16T09:20:20;30.60;71.00
19025;DHT22;9645;51.448;6.260;2022-10-16T09:22:47;30.50;69.10
19025;DHT22;9645;51.448;6.260;2022-10-16T09:25:16;30.60;68.10
19025;DHT22;9645;51.448;6.260;2022-10-16T09:27:46;30.60;67.60
19025;DHT22;9645;51.448;6.260;2022-10-16T09:30:17;30.60;67.60
19025;DHT22;9645;51.448;6.260;2022-10-16T09:32:48;31.40;66.70
19025;DHT22;9645;51.448;6.260;2022-10-16T09:35:19;31.40;63.40
19025;DHT22;9645;51.448;6.260;2022-10-16T09:37:49;31.90;66.20
19025;DHT22;9645;51.448;6.260;2022-10-16T09:40:26;32.10;63.80
19025;DHT22;9645;51.448;6.260;2022-10-16T09:42:58;32.30;61.90
19025;DHT22;9645;51.448;6.260;2022-10-16T09:45:29;32.60;59.10
19025;DHT22;9645;51.448;6.260;2022-10-16T09:47:56;33.20;57.30
19025;DHT22;9645;51.448;6.260;2022-10-16T09:50:25;33.30;56.70
19025;DHT22;9645;51.448;6.260;2022-10-16T09:53:04;33.40;57.00
19025;DHT22;9645;51.448;6.260;2022-10-16T09:55:31;33.20;56.50
19025;DHT22;9645;51.448;6.260;2022-10-16T09:57:58;32.10;55.70
19025;DHT22;9645;51.448;6.260;2022-10-16T10:00:25;32.60;57.90
19025;DHT22;9645;51.448;6.260;2022-10-16T10:02:54;32.60;55.30
19025;DHT22;9645;51.448;6.260;2022-10-16T10:05:23;33.00;55.50
19025;DHT22;9645;51.448;6.260;2022-10-16T10:07:56;32.70;54.40
19025;DHT22;9645;51.448;6.260;2022-10-16T10:10:25;33.20;56.20
19025;DHT22;9645;51.448;6.260;2022-10-16T10:12:53;33.00;53.70
19025;DHT22;9645;51.448;6.260;2022-10-16T10:15:21;33.30;53.10
19025;DHT22;9645;51.448;6.260;2022-10-16T10:17:50;33.10;53.60
19025;DHT22;9645;51.448;6.260;2022-10-16T10:20:27;33.50;52.10
19025;DHT22;9645;51.448;6.260;2022-10-16T10:22:55;34.10;51.60
19025;DHT22;9645;51.448;6.260;2022-10-16T10:25:41;33.60;51.40
19025;DHT22;9645;51.448;6.260;2022-10-16T10:31:19;33.50;50.10
19025;DHT22;9645;51.448;6.260;2022-10-16T10:33:54;33.50;51.40
19025;DHT22;9645;51.448;6.260;2022-10-16T10:36:34;33.20;51.40
19025;DHT22;9645;51.448;6.260;2022-10-16T10:39:07;34.00;53.60
19025;DHT22;9645;51.448;6.260;2022-10-16T10:42:02;34.70;49.00
19025;DHT22;9645;51.448;6.260;2022-10-16T10:44:53;35.20;47.30
19025;DHT22;9645;51.448;6.260;2022-10-16T10:47:30;34.90;48.20
19025;DHT22;9645;51.448;6.260;2022-10-16T10:50:06;34.70;46.20
19025;DHT22;9645;51.448;6.260;2022-10-16T10:52:53;34.40;45.90
19025;DHT22;9645;51.448;6.260;2022-10-16T10:55:31;33.10;48.60
19025;DHT22;9645;51.448;6.260;2022-10-16T11:01:10;32.70;51.50
19025;DHT22;9645;51.448;6.260;2022-10-16T11:03:58;32.00;49.20
19025;DHT22;9645;51.448;6.260;2022-10-16T11:06:30;32.20;52.10
19025;DHT22;9645;51.448;6.260;2022-10-16T11:09:09;32.50;53.50
19025;DHT22;9645;51.448;6.260;2022-10-16T11:11:41;33.10;49.70
19025;DHT22;9645;51.448;6.260;2022-10-16T11:14:15;33.40;48.00
19025;DHT22;9645;51.448;6.260;2022-10-16T11:16:49;33.30;50.50
19025;DHT22;9645;51.448;6.260;2022-10-16T11:19:25;33.60;50.30
19025;DHT22;9645;51.448;6.260;2022-10-16T11:21:59;33.60;48.40
19025;DHT22;9645;51.448;6.260;2022-10-16T11:24:37;33.60;46.70
19025;DHT22;9645;51.448;6.260;2022-10-16T11:27:08;33.50;49.40
19025;DHT22;9645;51.448;6.260;2022-10-16T11:29:45;33.70;47.80
19025;DHT22;9645;51.448;6.260;2022-10-16T11:32:20;31.50;48.80
19025;DHT22;9645;51.448;6.260;2022-10-16T11:34:53;27.90;58.50
19025;DHT22;9645;51.448;6.260;2022-10-16T11:39:59;25.90;73.50
19025;DHT22;9645;51.448;6.260;2022-10-16T11:42:33;25.70;77.70
19025;DHT22;9645;51.448;6.260;2022-10-16T11:45:15;25.20;82.30
19025;DHT22;9645;51.448;6.260;2022-10-16T11:47:45;24.80;94.00
19025;DHT22;9645;51.448;6.260;2022-10-16T11:50:22;26.00;87.50
19025;DHT22;9645;51.448;6.260;2022-10-16T11:52:53;27.10;82.20
19025;DHT22;9645;51.448;6.260;2022-10-16T11:55:32;29.20;76.20
19025;DHT22;9645;51.448;6.260;2022-10-16T11:58:03;30.60;69.10
19025;DHT22;9645;51.448;6.260;2022-10-16T12:00:37;31.90;59.20
19025;DHT22;9645;51.448;6.260;2022-10-16T12:03:14;32.20;54.10
19025;DHT22;9645;51.448;6.260;2022-10-16T12:05:55;32.30;55.50
19025;DHT22;9645;51.448;6.260;2022-10-16T12:08:25;31.80;54.50
19025;DHT22;9645;51.448;6.260;2022-10-16T12:11:06;31.70;55.90
19025;DHT22;9645;51.448;6.260;2022-10-16T12:13:36;32.00;54.90
19025;DHT22;9645;51.448;6.260;2022-10-16T12:16:18;31.40;53.80
19025;DHT22;9645;51.448;6.260;2022-10-16T12:18:47;30.70;56.80
19025;DHT22;9645;51.448;6.260;2022-10-16T12:21:15;30.30;57.70
19025;DHT22;9645;51.448;6.260;2022-10-16T12:23:48;29.30;58.80
19025;DHT22;9645;51.448;6.260;2022-10-16T12:26:25;29.00;62.80
19025;DHT22;9645;51.448;6.260;2022-10-16T12:28:53;29.80;63.50
19025;DHT22;9645;51.448;6.260;2022-10-16T12:31:20;30.90;61.00
19025;DHT22;9645;51.448;6.260;2022-10-16T12:33:58;31.70;54.90
19025;DHT22;9645;51.448;6.260;2022-10-16T12:36:30;32.30;53.30
19025;DHT22;9645;51.448;6.260;2022-10-16T12:38:59;33.00;52.40
19025;DHT22;9645;51.448;6.260;2022-10-16T12:41:29;33.10;51.50
19025;DHT22;9645;51.448;6.260;2022-10-16T12:43:57;33.40;50.90
19025;DHT22;9645;51.448;6.260;2022-10-16T12:46:38;33.70;50.80
19025;DHT22;9645;51.448;6.260;2022-10-16T12:49:19;33.40;49.00
19025;DHT22;9645;51.448;6.260;2022-10-16T12:51:47;32.60;49.40
19025;DHT22;9645;51.448;6.260;2022-10-16T12:54:16;32.60;51.40
19025;DHT22;9645;51.448;6.260;2022-10-16T12:56:54;32.60;49.70
19025;DHT22;9645;51.448;6.260;2022-10-16T12:59:34;32.80;51.30
19025;DHT22;9645;51.448;6.260;2022-10-16T13:02:36;31.90;50.50
19025;DHT22;9645;51.448;6.260;2022-10-16T13:05:25;32.30;52.80
19025;DHT22;9645;51.448;6.260;2022-10-16T13:08:02;31.90;51.90
19025;DHT22;9645;51.448;6.260;2022-10-16T13:10:34;31.10;52.10
19025;DHT22;9645;51.448;6.260;2022-10-16T13:13:23;30.80;52.80
19025;DHT22;9645;51.448;6.260;2022-10-16T13:16:06;30.00;54.50
19025;DHT22;9645;51.448;6.260;2022-10-16T13:18:46;28.70;57.70
19025;DHT22;9645;51.448;6.260;2022-10-16T13:21:27;26.50;65.90
19025;DHT22;9645;51.448;6.260;2022-10-16T13:23:59;26.40;67.30
19025;DHT22;9645;51.448;6.260;2022-10-16T13:26:37;24.80;78.40
19025;DHT22;9645;51.448;6.260;2022-10-16T13:29:09;24.10;85.80
19025;DHT22;9645;51.448;6.260;2022-10-16T13:31:38;23.80;89.80
19025;DHT22;9645;51.448;6.260;2022-10-16T13:34:06;23.40;91.90
19025;DHT22;9645;51.448;6.260;2022-10-16T13:36:43;23.20;93.80
19025;DHT22;9645;51.448;6.260;2022-10-16T13:39:13;23.10;97.30
19025;DHT22;9645;51.448;6.260;2022-10-16T13:41:42;23.50;95.50
19025;DHT22;9645;51.448;6.260;2022-10-16T13:44:17;23.60;95.10
19025;DHT22;9645;51.448;6.260;2022-10-16T13:46:45;23.70;95.80
19025;DHT22;9645;51.448;6.260;2022-10-16T13:49:14;23.80;97.60
19025;DHT22;9645;51.448;6.260;2022-10-16T13:51:47;23.60;95.30
19025;DHT22;9645;51.448;6.260;2022-10-16T13:54:20;23.10;97.50
19025;DHT22;9645;51.448;6.260;2022-10-16T13:56:47;22.60;98.90
19025;DHT22;9645;51.448;6.260;2022-10-16T13:59:24;22.40;99.90
19025;DHT22;9645;51.448;6.260;2022-10-16T14:01:53;22.00;99.90
19025;DHT22;9645;51.448;6.260;2022-10-16T14:04:22;22.00;99.90
19025;DHT22;9645;51.448;6.260;2022-10-16T14:06:50;21.80;99.90
19025;DHT22;9645;51.448;6.260;2022-10-16T14:09:22;21.70;99.90
19025;DHT22;9645;51.448;6.260;2022-10-16T14:11:54;21.60;99.90
19025;DHT22;9645;51.448;6.260;2022-10-16T14:14:23;21.50;99.90
19025;DHT22;9645;51.448;6.260;2022-10-16T14:16:51;21.40;99.90
19025;DHT22;9645;51.448;6.260;2022-10-16T14:19:21;21.30;99.90
19025;DHT22;9645;51.448;6.260;2022-10-16T14:21:50;21.20;99.90
19025;DHT22;9645;51.448;6.260;2022-10-16T14:24:30;21.20;99.90
19025;DHT22;9645;51.448;6.260;2022-10-16T14:26:58;21.20;99.90
19025;DHT22;9645;51.448;6.260;2022-10-16T14:29:29;21.10;99.90
19025;DHT22;9645;51.448;6.260;2022-10-16T14:31:59;20.90;99.90
19025;DHT22;9645;51.448;6.260;2022-10-16T14:34:28;20.70;99.90
19025;DHT22;9645;51.448;6.260;2022-10-16T14:36:59;20.60;99.90
19025;DHT22;9645;51.448;6.260;2022-10-16T14:39:28;20.50;99.90
19025;DHT22;9645;51.448;6.260;2022-10-16T14:41:57;20.50;99.90
19025;DHT22;9645;51.448;6.260;2022-10-16T14:44:29;20.40;99.90
19025;DHT22;9645;51.448;6.260;2022-10-16T14:46:58;20.40;99.90
19025;DHT22;9645;51.448;6.260;2022-10-16T14:49:26;20.30;99.90
19025;DHT22;9645;51.448;6.260;2022-10-16T14:51:53;20.30;99.90
19025;DHT22;9645;51.448;6.260;2022-10-16T14:54:21;20.20;99.90
19025;DHT22;9645;51.448;6.260;2022-10-16T14:56:50;20.10;99.90
19025;DHT22;9645;51.448;6.260;2022-10-16T14:59:21;20.10;99.90
19025;DHT22;9645;51.448;6.260;2022-10-16T15:01:50;20.00;99.90
19025;DHT22;9645;51.448;6.260;2022-10-16T15:04:17;19.90;99.90
19025;DHT22;9645;51.448;6.260;2022-10-16T15:06:44;19.80;99.90
19025;DHT22;9645;51.448;6.260;2022-10-16T15:09:11;19.80;99.90
19025;DHT22;9645;51.448;6.260;2022-10-16T15:11:38;19.80;99.90
19025;DHT22;9645;51.448;6.260;2022-10-16T15:14:06;19.80;99.90
19025;DHT22;9645;51.448;6.260;2022-10-16T15:16:33;19.60;99.90
19025;DHT22;9645;51.448;6.260;2022-10-16T15:19:01;19.50;99.90
19025;DHT22;9645;51.448;6.260;2022-10-16T15:21:29;19.50;99.90
19025;DHT22;9645;51.448;6.260;2022-10-16T15:23:58;19.50;99.90
19025;DHT22;9645;51.448;6.260;2022-10-16T15:26:26;19.50;99.90
19025;DHT22;9645;51.448;6.260;2022-10-16T15:28:53;19.50;99.90
19025;DHT22;9645;51.448;6.260;2022-10-16T15:31:21;19.40;99.90
19025;DHT22;9645;51.448;6.260;2022-10-16T15:33:49;19.30;99.90
19025;DHT22;9645;51.448;6.260;2022-10-16T15:36:26;19.30;99.90
19025;DHT22;9645;51.448;6.260;2022-10-16T15:38:53;19.20;99.90
19025;DHT22;9645;51.448;6.260;2022-10-16T15:43:48;19.10;99.90
19025;DHT22;9645;51.448;6.260;2022-10-16T15:46:18;19.10;99.90
19025;DHT22;9645;51.448;6.260;2022-10-16T15:51:12;18.60;99.90
19025;DHT22;9645;51.448;6.260;2022-10-16T15:53:41;18.80;99.90
19025;DHT22;9645;51.448;6.260;2022-10-16T15:56:10;18.80;99.90
19025;DHT22;9645;51.448;6.260;2022-10-16T15:58:37;18.70;99.90
19025;DHT22;9645;51.448;6.260;2022-10-16T16:01:04;18.60;99.90
19025;DHT22;9645;51.448;6.260;2022-10-16T16:03:33;18.50;99.90
19025;DHT22;9645;51.448;6.260;2022-10-16T16:06:04;18.30;99.90
19025;DHT22;9645;51.448;6.260;2022-10-16T16:08:32;18.20;99.90
19025;DHT22;9645;51.448;6.260;2022-10-16T16:11:03;18.20;99.90
19025;DHT22;9645;51.448;6.260;2022-10-16T16:13:30;18.10;99.90
19025;DHT22;9645;51.448;6.260;2022-10-16T16:15:57;18.10;99.90
19025;DHT22;9645;51.448;6.260;2022-10-16T16:18:24;18.00;99.90
19025;DHT22;9645;51.448;6.260;2022-10-16T16:20:55;17.90;99.90
19025;DHT22;9645;51.448;6.260;2022-10-16T16:23:22;17.80;99.90
19025;DHT22;9645;51.448;6.260;2022-10-16T16:26:05;17.70;99.90
19025;DHT22;9645;51.448;6.260;2022-10-16T16:28:33;17.60;99.90
19025;DHT22;9645;51.448;6.260;2022-10-16T16:31:00;17.50;99.90
19025;DHT22;9645;51.448;6.260;2022-10-16T16:33:27;17.50;99.90